Time;durP1;ratioP1;P1;durP2;ratioP2;P2;SDS_P1;SDS_P2;PMS_P1;PMS_P2;Temp;Humidity;BMP_temperature;BMP_pressure;BME280_temperature;BME280_humidity;BME280_pressure;Samples;Min_cycle;Max_cycle;Signal;HPM_P1;HPM_P2
2021/06/30 00:09:00;;;;;;;3.15;1.45;;;22.80;66.10;;;;;;20856981;28;20033;-20
2021/06/30 00:19:01;;;;;;;2.15;1.48;;;22.70;66.30;;;;;;20853622;28;20053;-21
2021/06/30 00:29:03;;;;;;;2.72;1.63;;;22.70;66.50;;;;;;20852765;28;20040;-24
2021/06/30 00:39:04;;;;;;;3.95;1.85;;;22.70;66.50;;;;;;20882066;28;20451;-22
2021/06/30 00:49:06;;;;;;;4.07;1.67;;;22.60;66.10;;;;;;20881123;28;20440;-23
2021/06/30 00:59:11;;;;;;;3.88;1.52;;;22.60;65.90;;;;;;20876061;28;20028;-25
2021/06/30 01:09:12;;;;;;;2.22;1.20;;;22.50;65.60;;;;;;20859863;28;20034;-20
2021/06/30 01:19:18;;;;;;;4.03;1.42;;;22.50;65.80;;;;;;20850405;28;20036;-19
2021/06/30 01:29:19;;;;;;;4.05;1.70;;;22.50;65.90;;;;;;20865433;28;20045;-16
2021/06/30 01:39:22;;;;;;;3.17;1.80;;;22.50;66.00;;;;;;20906583;28;20039;-17
2021/06/30 01:49:23;;;;;;;4.90;1.40;;;22.50;65.90;;;;;;20905619;28;20032;-16
2021/06/30 01:59:23;;;;;;;2.28;1.67;;;22.60;65.90;;;;;;20902458;28;20025;-19
2021/06/30 02:09:24;;;;;;;5.47;1.60;;;22.60;65.70;;;;;;20893939;28;20033;-19
2021/06/30 02:19:24;;;;;;;3.00;1.90;;;22.60;65.90;;;;;;20896401;28;20098;-19
2021/06/30 02:29:25;;;;;;;3.38;1.80;;;22.60;65.80;;;;;;20907718;28;20086;-21
2021/06/30 02:39:25;;;;;;;2.17;1.35;;;22.60;65.70;;;;;;20864216;28;20071;-20
2021/06/30 02:49:26;;;;;;;3.58;1.63;;;22.50;65.90;;;;;;20904654;28;20091;-17
2021/06/30 02:59:26;;;;;;;2.45;1.60;;;22.50;66.10;;;;;;20878569;28;20523;-17
2021/06/30 03:09:27;;;;;;;3.20;1.77;;;22.60;66.10;;;;;;20903131;28;20025;-18
2021/06/30 03:19:27;;;;;;;4.45;1.92;;;22.60;66.20;;;;;;20902616;28;20033;-17
2021/06/30 03:29:28;;;;;;;3.40;2.53;;;22.60;66.30;;;;;;20901693;28;20043;-16
2021/06/30 03:39:29;;;;;;;3.30;2.72;;;22.50;66.50;;;;;;20901513;28;20044;-16
2021/06/30 03:49:29;;;;;;;4.00;3.23;;;22.50;66.70;;;;;;20852255;28;20037;-17
2021/06/30 03:59:30;;;;;;;5.27;3.80;;;22.50;66.80;;;;;;20864605;28;20463;-18
2021/06/30 04:09:31;;;;;;;8.88;5.43;;;22.60;67.00;;;;;;20875844;28;20474;-22
2021/06/30 04:19:31;;;;;;;11.32;8.02;;;22.60;67.20;;;;;;20867659;28;20029;-19
2021/06/30 04:29:32;;;;;;;15.50;10.13;;;22.50;67.30;;;;;;20863254;28;20033;-19
2021/06/30 04:39:32;;;;;;;9.32;8.23;;;22.50;67.60;;;;;;20875861;28;20617;-16
2021/06/30 04:49:33;;;;;;;11.90;8.90;;;22.50;67.60;;;;;;20879841;28;20083;-19
2021/06/30 04:59:33;;;;;;;12.93;10.02;;;22.50;67.80;;;;;;20873403;28;20090;-19
2021/06/30 05:09:34;;;;;;;15.77;11.25;;;22.40;68.00;;;;;;20867080;28;20041;-25
2021/06/30 05:19:35;;;;;;;14.13;10.95;;;22.40;68.20;;;;;;20834246;28;20029;-21
2021/06/30 05:29:35;;;;;;;13.23;11.38;;;22.50;67.90;;;;;;20840505;28;20487;-17
2021/06/30 05:39:36;;;;;;;16.50;9.80;;;22.40;68.00;;;;;;20839142;28;20053;-18
2021/06/30 05:49:37;;;;;;;17.13;11.07;;;22.40;67.70;;;;;;20836616;28;20025;-17
2021/06/30 05:59:37;;;;;;;17.85;11.23;;;22.40;67.60;;;;;;20845858;28;20660;-18
2021/06/30 06:09:38;;;;;;;14.73;8.43;;;22.40;67.30;;;;;;20846241;28;20075;-20
2021/06/30 06:19:38;;;;;;;11.40;8.45;;;22.30;67.00;;;;;;20856145;28;20082;-19
2021/06/30 06:29:39;;;;;;;9.82;7.90;;;22.30;67.00;;;;;;20845265;28;20128;-19
2021/06/30 06:39:40;;;;;;;12.20;7.28;;;22.20;67.00;;;;;;20842488;28;20025;-20
2021/06/30 06:49:41;;;;;;;9.23;6.65;;;22.20;67.20;;;;;;20893749;28;20439;-19
2021/06/30 06:59:41;;;;;;;9.05;5.80;;;22.30;67.00;;;;;;20892394;28;20032;-18
2021/06/30 07:09:42;;;;;;;9.97;6.83;;;22.30;67.00;;;;;;20891059;28;20040;-19
2021/06/30 07:19:43;;;;;;;5.35;3.70;;;22.20;66.80;;;;;;20900377;28;20021;-20
2021/06/30 07:29:43;;;;;;;6.07;3.67;;;22.10;66.40;;;;;;20834656;28;20033;-20
2021/06/30 07:39:44;;;;;;;6.95;3.50;;;22.10;66.40;;;;;;20852158;28;20112;-18
2021/06/30 07:49:44;;;;;;;5.28;3.75;;;22.10;66.60;;;;;;20888639;28;20029;-20
2021/06/30 07:59:45;;;;;;;8.05;4.43;;;22.10;66.80;;;;;;20899602;28;20511;-18
2021/06/30 08:09:46;;;;;;;6.13;4.07;;;22.10;66.90;;;;;;20830676;28;20407;-19
2021/06/30 08:19:46;;;;;;;8.80;4.47;;;22.10;66.90;;;;;;20813746;28;20053;-21
2021/06/30 08:29:47;;;;;;;6.70;3.90;;;22.10;67.00;;;;;;20826185;28;20492;-18
2021/06/30 08:39:52;;;;;;;6.50;4.23;;;22.10;67.10;;;;;;20894195;28;20043;-17
2021/06/30 08:49:54;;;;;;;8.57;5.00;;;22.10;66.90;;;;;;20913496;28;20227;-23
2021/06/30 08:59:55;;;;;;;12.32;4.82;;;22.10;67.00;;;;;;20875351;28;20060;-25
2021/06/30 09:09:56;;;;;;;10.10;3.72;;;22.10;67.00;;;;;;20892321;28;20037;-21
2021/06/30 09:20:08;;;;;;;6.55;3.60;;;22.10;66.80;;;;;;20910570;28;20470;-18
2021/06/30 09:30:11;;;;;;;6.07;3.70;;;22.00;66.50;;;;;;20866947;28;20602;-18
2021/06/30 09:40:12;;;;;;;6.07;4.53;;;22.10;66.50;;;;;;20870296;28;20036;-21
2021/06/30 09:50:13;;;;;;;6.50;4.70;;;22.10;67.30;;;;;;20862249;28;20033;-21
2021/06/30 10:00:16;;;;;;;11.15;5.38;;;22.10;66.60;;;;;;20848419;28;20083;-18
2021/06/30 10:10:20;;;;;;;46.60;10.75;;;22.10;66.10;;;;;;20850843;28;20032;-22
2021/06/30 10:20:21;;;;;;;25.60;8.45;;;22.30;66.00;;;;;;20872740;28;20107;-19
2021/06/30 10:30:22;;;;;;;12.32;6.93;;;22.10;67.00;;;;;;20874927;28;20063;-19
2021/06/30 10:40:24;;;;;;;22.75;7.07;;;22.20;67.40;;;;;;20842797;28;20647;-18
2021/06/30 10:50:29;;;;;;;14.48;7.38;;;22.20;67.40;;;;;;20821847;28;20038;-18
2021/06/30 11:00:33;;;;;;;15.45;6.85;;;22.20;68.20;;;;;;20865508;28;20032;-18
2021/06/30 11:10:36;;;;;;;8.63;7.10;;;22.30;68.00;;;;;;20864568;28;20021;-17
2021/06/30 11:20:51;;;;;;;12.23;7.03;;;22.30;68.10;;;;;;20857174;28;20033;-17
2021/06/30 11:30:51;;;;;;;18.67;9.55;;;22.20;67.90;;;;;;20835985;28;20025;-17
2021/06/30 11:41:05;;;;;;;17.20;9.67;;;22.30;68.10;;;;;;20838954;28;20029;-17
2021/06/30 11:51:16;;;;;;;18.13;8.35;;;22.30;68.50;;;;;;20831072;28;20044;-17
2021/06/30 12:01:24;;;;;;;16.90;8.52;;;22.30;68.70;;;;;;20830338;28;20032;-18
2021/06/30 12:11:34;;;;;;;14.23;9.43;;;22.40;68.30;;;;;;20851879;28;20025;-18
2021/06/30 12:21:37;;;;;;;14.10;9.52;;;22.40;67.90;;;;;;20871252;28;20396;-18
2021/06/30 12:31:37;;;;;;;14.65;7.75;;;22.50;67.90;;;;;;20865531;28;20025;-25
2021/06/30 12:41:59;;;;;;;15.38;8.32;;;22.40;67.90;;;;;;20872757;28;20036;-26
2021/06/30 12:52:00;;;;;;;14.63;7.75;;;22.40;68.00;;;;;;20880829;28;20032;-21
2021/06/30 13:02:15;;;;;;;11.35;7.45;;;22.50;68.00;;;;;;20892817;28;20074;-17
2021/06/30 13:12:21;;;;;;;10.32;7.88;;;22.50;67.70;;;;;;20912043;28;20484;-19
2021/06/30 13:22:28;;;;;;;11.10;6.63;;;22.50;67.70;;;;;;20866748;28;20033;-20
2021/06/30 13:42:52;;;;;;;10.02;7.57;;;22.50;67.40;;;;;;20870108;28;20033;-19
2021/06/30 13:52:52;;;;;;;12.43;8.45;;;22.50;68.10;;;;;;20851477;28;20048;-21
2021/06/30 14:02:53;;;;;;;14.05;8.55;;;22.60;68.50;;;;;;20907782;28;20033;-19
2021/06/30 14:12:54;;;;;;;20.83;11.53;;;22.60;68.40;;;;;;20889276;28;20025;-18
2021/06/30 14:22:54;;;;;;;17.45;12.93;;;22.60;68.60;;;;;;20840299;28;20033;-18
2021/06/30 14:32:55;;;;;;;24.50;11.55;;;22.60;70.80;;;;;;20820564;28;20472;-18
2021/06/30 14:42:55;;;;;;;31.35;14.18;;;22.70;71.40;;;;;;20819920;28;20029;-18
2021/06/30 14:52:57;;;;;;;34.83;12.80;;;22.70;71.60;;;;;;20868877;28;20025;-18
2021/06/30 15:02:57;;;;;;;29.80;12.88;;;22.70;71.40;;;;;;20834047;28;20493;-18
2021/06/30 15:12:58;;;;;;;27.70;11.90;;;22.80;71.60;;;;;;20887737;28;20076;-18
2021/06/30 15:22:58;;;;;;;30.90;12.13;;;22.80;71.50;;;;;;20816912;28;20472;-20
2021/06/30 15:32:59;;;;;;;40.40;13.13;;;22.80;71.70;;;;;;20847553;28;20101;-19
2021/06/30 15:43:00;;;;;;;18.83;10.60;;;22.80;71.80;;;;;;20821498;28;20082;-19
2021/06/30 15:53:00;;;;;;;21.67;9.95;;;22.80;71.70;;;;;;20872545;28;20055;-17
2021/06/30 16:03:01;;;;;;;14.95;7.65;;;23.00;70.80;;;;;;20857749;28;20025;-17
2021/06/30 16:13:02;;;;;;;24.73;8.33;;;22.80;71.50;;;;;;20831554;28;20090;-18
2021/06/30 16:23:03;;;;;;;13.60;7.70;;;22.80;71.50;;;;;;20839194;28;20346;-17
2021/06/30 16:33:03;;;;;;;15.02;7.13;;;22.70;71.80;;;;;;20855660;28;20029;-17
2021/06/30 16:43:04;;;;;;;13.27;6.53;;;22.80;71.50;;;;;;20867795;28;20375;-17
2021/06/30 16:53:05;;;;;;;11.93;6.50;;;22.80;71.60;;;;;;20861925;28;20538;-17
2021/06/30 17:03:06;;;;;;;11.15;7.43;;;22.80;71.10;;;;;;20874280;28;20272;-17
2021/06/30 17:13:07;;;;;;;11.25;5.75;;;22.80;71.10;;;;;;20865038;28;20064;-17
2021/06/30 17:23:07;;;;;;;10.77;6.07;;;22.70;71.20;;;;;;20859931;28;20034;-17
2021/06/30 17:33:08;;;;;;;18.33;6.35;;;22.70;71.70;;;;;;20838929;28;20064;-16
2021/06/30 17:43:09;;;;;;;22.90;6.55;;;22.70;71.90;;;;;;20836494;28;20431;-18
2021/06/30 17:53:10;;;;;;;15.65;5.93;;;22.80;72.50;;;;;;20863237;28;20033;-17
2021/06/30 18:03:11;;;;;;;25.98;8.00;;;22.80;73.00;;;;;;20882297;28;20029;-18
2021/06/30 18:13:12;;;;;;;17.30;6.20;;;22.80;72.30;;;;;;20905253;28;20032;-19
2021/06/30 18:23:13;;;;;;;16.15;6.60;;;22.70;71.50;;;;;;20861930;28;20116;-20
2021/06/30 18:33:13;;;;;;;22.27;7.45;;;22.70;71.70;;;;;;20901882;28;20076;-18
2021/06/30 18:43:14;;;;;;;9.18;6.30;;;22.70;72.30;;;;;;20860740;28;20079;-18
2021/06/30 18:53:14;;;;;;;11.48;6.55;;;22.70;71.70;;;;;;20819102;28;20523;-18
2021/06/30 19:03:15;;;;;;;12.18;6.35;;;22.70;72.30;;;;;;20827581;28;20290;-18
2021/06/30 19:13:15;;;;;;;13.25;6.15;;;22.70;72.60;;;;;;20836904;28;20026;-18
2021/06/30 19:23:16;;;;;;;11.65;5.60;;;22.70;72.50;;;;;;20861193;28;20025;-19
2021/06/30 19:33:17;;;;;;;10.45;5.38;;;22.70;72.80;;;;;;20826418;28;20029;-20
2021/06/30 19:43:18;;;;;;;19.02;6.85;;;22.70;72.20;;;;;;20774201;22;20492;-21
2021/06/30 19:53:19;;;;;;;6.60;5.38;;;22.70;72.20;;;;;;20655199;28;20388;-20
2021/06/30 20:03:21;;;;;;;11.10;7.30;;;22.70;72.90;;;;;;20652854;28;20080;-19
2021/06/30 20:13:21;;;;;;;17.38;7.00;;;22.70;73.50;;;;;;20653440;28;20034;-20
2021/06/30 20:23:22;;;;;;;9.73;6.15;;;22.70;73.10;;;;;;20653487;28;20023;-20
2021/06/30 20:33:22;;;;;;;6.70;5.28;;;22.70;73.50;;;;;;20655667;28;20030;-20
2021/06/30 20:43:24;;;;;;;8.18;5.78;;;22.70;73.70;;;;;;20669148;28;20034;-19
2021/06/30 20:53:28;;;;;;;7.75;5.47;;;22.70;74.00;;;;;;20665386;28;20056;-19
2021/06/30 21:03:28;;;;;;;7.85;6.57;;;22.70;73.40;;;;;;20667557;28;20043;-19
2021/06/30 21:13:29;;;;;;;6.13;5.53;;;22.70;73.40;;;;;;20667412;28;20026;-20
2021/06/30 21:23:29;;;;;;;7.90;6.18;;;22.70;73.50;;;;;;20666533;28;20038;-20
2021/06/30 21:33:30;;;;;;;8.80;6.70;;;22.70;72.50;;;;;;20668860;28;20023;-20
2021/06/30 21:43:31;;;;;;;15.73;7.50;;;22.70;71.30;;;;;;20669353;28;20038;-20
2021/06/30 21:53:31;;;;;;;20.30;8.63;;;22.60;70.50;;;;;;20671183;28;20030;-20
2021/06/30 22:03:32;;;;;;;14.15;8.73;;;22.50;69.80;;;;;;20677692;28;20504;-20
2021/06/30 22:13:34;;;;;;;8.93;6.75;;;22.60;70.00;;;;;;20679770;28;20030;-20
2021/06/30 22:23:35;;;;;;;9.63;6.80;;;22.40;69.00;;;;;;20683054;28;20032;-20
2021/06/30 22:33:36;;;;;;;6.80;5.70;;;22.40;68.60;;;;;;20683786;28;20488;-20
2021/06/30 22:43:37;;;;;;;7.47;4.57;;;22.40;68.10;;;;;;20674108;28;20504;-20
2021/06/30 22:53:38;;;;;;;6.32;5.07;;;22.40;67.90;;;;;;20670638;28;20030;-20
2021/06/30 23:03:38;;;;;;;5.00;4.50;;;22.40;67.50;;;;;;20670619;28;20072;-20
2021/06/30 23:13:39;;;;;;;8.13;5.35;;;22.30;67.10;;;;;;20675231;28;20037;-20
2021/06/30 23:23:39;;;;;;;6.28;4.72;;;22.30;66.80;;;;;;20678241;28;20041;-20
2021/06/30 23:33:40;;;;;;;7.82;3.92;;;22.30;66.40;;;;;;20677870;28;20045;-21
2021/06/30 23:43:40;;;;;;;7.00;4.40;;;22.20;66.30;;;;;;20667174;28;20112;-20
2021/06/30 23:53:41;;;;;;;8.38;4.90;;;22.20;66.30;;;;;;20666873;28;20174;-20
